ADDS METAR Data INFO
IDs: Format: Raw Decoded Include TAF

Data at: 1223 UTC 22 Feb 2018

KTUS 221153Z 00000KT 10SM BKN060 05/M04 A3013 RMK AO2 SLP191 T00501039 10100 20050 53008
KTUS 221053Z 00000KT 10SM CLR 06/M05 A3012 RMK AO2 SLP183 T00561050
KTUS 220953Z AUTO 17003KT 10SM CLR 07/M06 A3011 RMK AO2 SLP179 T00671061
KTUS 220853Z 28005KT 10SM SCT100 08/M07 A3011 RMK AO2 SLP178 T00781072 53003
KTUS 220753Z 28005KT 10SM OVC070 09/M07 A3010 RMK AO2 SLP176 T00891067
KTUS 220653Z 25005KT 10SM FEW120 09/M07 A3010 RMK AO2 SLP176 T00891067 401610028
KTUS 220553Z 28005KT 10SM CLR 10/M07 A3010 RMK AO2 SLP177 T01001072 10144 20100 53010
KTUS 220453Z 30007KT 10SM SCT110 11/M09 A3009 RMK AO2 SLP176 T01061089
KTUS 220353Z 32007KT 10SM FEW120 11/M08 A3007 RMK AO2 SLP172 T01111078
KTUS 212353Z 31012G20KT 10SM CLR 14/M05 A3002 RMK AO2 SLP152 T01391050 10161 20111 55005
KTUS 212253Z 27005KT 10SM CLR 16/M04 A3001 RMK AO2 SLP148 T01561039
KTUS 212153Z 32007KT 10SM CLR 16/M03 A3001 RMK AO2 SLP149 T01611028
KTUS 212053Z 33006KT 10SM CLR 16/M02 A3003 RMK AO2 SLP156 T01561022 58021
KTUS 211953Z 21009KT 10SM CLR 15/M01 A3006 RMK AO2 SLP164 T01501011
KTUS 211853Z 20010KT 10SM CLR 13/M01 A3008 RMK AO2 SLP172 T01331011
KTUS 211753Z 00000KT 10SM CLR 11/M03 A3010 RMK AO2 SLP180 T01111028 10111 20033 50001
KTUS 211653Z 17004KT 10SM CLR 09/M03 A3012 RMK AO2 SLP189 T00891033
KTUS 211553Z 16005KT 10SM CLR 06/M01 A3011 RMK AO2 SLP186 T00611006
KTUS 211453Z 17004KT 10SM FEW055 04/00 A3009 RMK AO2 SLP183 T00390000 53012
KTUS 211353Z 15005KT 10SM OVC055 04/01 A3008 RMK AO2 SLP177 T00390006
KTUS 211253Z 17003KT 10SM OVC060 03/00 A3007 RMK AO2 SLP173 T00330000
KTUS 210753Z 20004KT 10SM CLR 05/M01 A3009 RMK AO2 SLP179 T00501011
KTUS 210653Z 00000KT 10SM CLR 06/M02 A3009 RMK AO2 SLP178 T00611022 401280044
KTUS 210553Z 20004KT 10SM CLR 07/M02 A3009 RMK AO2 SLP181 T00671022 10122 20056 51008